createdAt,value
2022-10-10T00:02:12.725Z,17.60
2022-10-10T00:07:14.946Z,17.45
2022-10-10T00:12:17.121Z,17.33
2022-10-10T00:17:19.455Z,17.38
2022-10-10T00:22:21.846Z,17.34
2022-10-10T00:27:24.133Z,17.25
2022-10-10T00:32:26.401Z,17.22
2022-10-10T00:37:28.814Z,17.25
2022-10-10T00:42:31.125Z,17.28
2022-10-10T00:47:34.120Z,17.18
2022-10-10T00:52:36.331Z,17.16
2022-10-10T00:57:38.611Z,17.01
2022-10-10T01:02:41.064Z,16.94
2022-10-10T01:07:45.035Z,16.90
2022-10-10T01:13:08.058Z,16.94
2022-10-10T01:18:24.770Z,16.86
2022-10-10T01:23:57.713Z,16.74
2022-10-10T01:29:14.884Z,16.55
2022-10-10T01:34:39.877Z,16.33
2022-10-10T01:40:25.555Z,16.35
2022-10-10T01:45:28.534Z,16.36
2022-10-10T01:50:36.345Z,16.29
2022-10-10T01:55:59.685Z,16.29
2022-10-10T02:01:15.231Z,16.41
2022-10-10T02:06:29.886Z,16.19
2022-10-10T02:11:38.868Z,16.40
2022-10-10T02:16:46.591Z,16.16
2022-10-10T02:21:51.388Z,16.14
2022-10-10T02:27:02.197Z,16.18
2022-10-10T02:32:13.524Z,16.03
2022-10-10T02:37:17.322Z,16.11
2022-10-10T02:42:22.514Z,16.07
2022-10-10T02:47:24.850Z,16.12
2022-10-10T02:52:27.167Z,16.01
2022-10-10T02:57:29.351Z,16.00
2022-10-10T03:02:31.606Z,16.00
2022-10-10T03:07:33.803Z,15.90
2022-10-10T03:12:36.538Z,15.95
2022-10-10T03:17:38.751Z,15.76
2022-10-10T03:22:40.937Z,15.95
2022-10-10T03:27:43.131Z,16.03
2022-10-10T03:32:45.431Z,15.80
2022-10-10T03:37:47.654Z,15.81
2022-10-10T03:42:50.037Z,15.83
2022-10-10T03:47:52.383Z,15.69
2022-10-10T03:52:54.678Z,15.45
2022-10-10T03:57:57.111Z,15.69
2022-10-10T04:02:59.770Z,15.77
2022-10-10T04:08:02.248Z,15.76
2022-10-10T04:13:04.645Z,15.65
2022-10-10T04:18:07.042Z,15.79
2022-10-10T04:23:09.332Z,15.74
2022-10-10T04:28:13.591Z,15.83
2022-10-10T04:33:15.923Z,15.78
2022-10-10T04:38:20.249Z,15.73
2022-10-10T04:43:22.483Z,15.80
2022-10-10T04:48:25.224Z,15.96
2022-10-10T04:53:28.199Z,16.00
2022-10-10T04:58:30.852Z,16.11
2022-10-10T05:03:33.402Z,16.09
2022-10-10T05:08:35.612Z,16.11
2022-10-10T05:13:37.961Z,16.28
2022-10-10T05:18:40.171Z,16.27
2022-10-10T05:23:42.376Z,16.36
2022-10-10T05:28:44.751Z,16.29
2022-10-10T05:33:47.234Z,16.38
2022-10-10T05:38:49.671Z,16.29
2022-10-10T05:43:52.191Z,16.32
2022-10-10T05:48:54.728Z,16.31
2022-10-10T05:53:57.799Z,16.39
2022-10-10T05:59:00.019Z,16.55
2022-10-10T06:04:02.718Z,16.49
2022-10-10T06:09:05.106Z,16.60
2022-10-10T06:14:07.669Z,16.81
2022-10-10T06:19:14.645Z,17.01
2022-10-10T06:24:17.295Z,17.29
2022-10-10T06:29:19.526Z,17.42
2022-10-10T06:34:21.845Z,17.59
2022-10-10T06:39:24.298Z,17.64
2022-10-10T06:44:26.805Z,17.98
2022-10-10T06:49:29.824Z,18.04
2022-10-10T06:54:32.176Z,18.23
2022-10-10T06:59:34.819Z,18.30
2022-10-10T07:04:37.604Z,18.43
2022-10-10T07:09:39.852Z,18.77
2022-10-10T07:14:42.038Z,18.78
2022-10-10T07:19:44.209Z,18.95
2022-10-10T07:24:46.546Z,19.32
2022-10-10T07:29:48.873Z,19.45
2022-10-10T07:34:51.355Z,19.67
2022-10-10T07:39:54.386Z,19.75
2022-10-10T07:44:56.659Z,19.90
2022-10-10T07:49:59.081Z,19.98
2022-10-10T07:55:02.195Z,20.21
2022-10-10T08:00:07.022Z,20.38
2022-10-10T08:05:15.107Z,20.45
2022-10-10T08:10:17.390Z,20.66
2022-10-10T08:15:20.036Z,20.70
2022-10-10T08:20:22.331Z,20.85
2022-10-10T08:25:24.525Z,21.27
2022-10-10T08:30:26.719Z,21.59
2022-10-10T08:35:29.090Z,21.62
2022-10-10T08:40:31.951Z,21.70
2022-10-10T08:45:36.099Z,21.92
2022-10-10T08:50:47.013Z,22.13
2022-10-10T08:55:49.614Z,22.24
2022-10-10T09:01:13.475Z,22.43
2022-10-10T09:06:40.215Z,22.45
2022-10-10T09:11:42.895Z,22.39
2022-10-10T09:16:54.544Z,22.53
2022-10-10T09:22:02.295Z,22.65
2022-10-10T09:27:07.283Z,22.97
2022-10-10T09:32:21.516Z,23.12
2022-10-10T09:37:46.432Z,23.17
2022-10-10T09:42:50.684Z,23.22
2022-10-10T09:47:55.928Z,23.51
2022-10-10T09:52:59.324Z,23.73
2022-10-10T09:58:20.182Z,23.88
2022-10-10T10:03:23.502Z,23.91
2022-10-10T10:08:32.701Z,23.97
2022-10-10T10:13:38.015Z,24.08
2022-10-10T10:18:48.326Z,24.30
2022-10-10T10:24:01.139Z,24.50
2022-10-10T10:29:03.983Z,24.47
2022-10-10T10:34:15.496Z,24.60
2022-10-10T10:39:34.192Z,24.67
2022-10-10T10:44:54.331Z,24.96
2022-10-10T10:50:05.747Z,25.22
2022-10-10T10:55:42.448Z,25.22
2022-10-10T11:01:24.296Z,25.42
2022-10-10T11:06:31.515Z,25.70
2022-10-10T11:11:49.305Z,25.80
2022-10-10T11:17:14.213Z,25.71
2022-10-10T11:22:20.543Z,25.52
2022-10-10T11:27:33.970Z,25.44
2022-10-10T11:33:07.855Z,25.53
2022-10-10T11:38:41.255Z,25.86
2022-10-10T11:44:04.715Z,25.82
2022-10-10T11:49:13.121Z,25.69
2022-10-10T11:54:47.536Z,25.56
2022-10-10T11:59:58.337Z,25.72
2022-10-10T12:05:01.348Z,26.03
2022-10-10T12:10:14.294Z,26.18
2022-10-10T12:15:49.953Z,26.00
2022-10-10T12:21:05.545Z,26.14
2022-10-10T12:26:14.685Z,26.43
2022-10-10T12:31:27.500Z,26.47
2022-10-10T12:36:29.676Z,26.59
2022-10-10T12:41:53.159Z,26.71
2022-10-10T12:47:17.414Z,26.88
2022-10-10T12:52:36.413Z,26.86
2022-10-10T12:57:43.522Z,27.05
2022-10-10T13:02:58.088Z,27.02
2022-10-10T13:08:03.307Z,27.13
2022-10-10T13:13:18.497Z,27.10
2022-10-10T13:18:48.772Z,27.26
2022-10-10T13:29:33.453Z,27.44
2022-10-10T13:34:43.033Z,27.58
2022-10-10T13:39:47.915Z,27.64
2022-10-10T13:44:53.406Z,27.58
2022-10-10T13:49:57.351Z,27.64
2022-10-10T13:55:26.434Z,27.74
2022-10-10T14:00:33.043Z,27.75
2022-10-10T14:05:35.648Z,27.89
2022-10-10T14:10:38.532Z,27.68
2022-10-10T14:15:47.114Z,27.76
2022-10-10T14:20:50.534Z,28.10
2022-10-10T14:25:53.686Z,28.05
2022-10-10T14:30:56.144Z,28.02
2022-10-10T14:36:00.758Z,27.98
2022-10-10T14:41:03.338Z,27.90
2022-10-10T14:46:07.298Z,27.90
2022-10-10T14:51:34.361Z,27.93
2022-10-10T14:57:08.996Z,27.51
2022-10-10T15:01:57.474Z,27.24
2022-10-10T15:07:12.938Z,27.19
2022-10-10T15:12:15.947Z,27.02
2022-10-10T15:17:18.472Z,26.62
2022-10-10T15:22:20.940Z,25.98
2022-10-10T15:27:23.378Z,25.58
2022-10-10T15:32:26.121Z,25.14
2022-10-10T15:37:28.468Z,24.78
2022-10-10T15:42:31.569Z,24.40
2022-10-10T15:47:33.900Z,24.01
2022-10-10T15:52:37.073Z,23.84
2022-10-10T15:57:39.698Z,23.64
2022-10-10T16:02:42.099Z,23.37
2022-10-10T16:07:48.259Z,23.24
2022-10-10T16:12:50.976Z,23.03
2022-10-10T16:17:53.455Z,22.84
2022-10-10T16:22:56.116Z,22.82
2022-10-10T16:27:58.307Z,22.57
2022-10-10T16:33:00.898Z,22.39
2022-10-10T16:38:03.206Z,22.44
2022-10-10T16:43:05.947Z,22.35
2022-10-10T16:48:08.314Z,22.15
2022-10-10T16:53:11.386Z,22.22
2022-10-10T16:58:13.768Z,22.07
2022-10-10T17:03:34.567Z,21.96
2022-10-10T17:08:37.339Z,21.88
2022-10-10T17:13:39.745Z,21.80
2022-10-10T17:18:42.147Z,21.70
2022-10-10T17:23:44.709Z,21.57
2022-10-10T17:28:47.118Z,21.66
2022-10-10T17:33:53.538Z,21.62
2022-10-10T17:38:57.299Z,21.57
2022-10-10T17:44:01.057Z,21.39
2022-10-10T17:49:08.252Z,21.36
2022-10-10T17:54:11.484Z,21.31
2022-10-10T17:59:14.049Z,21.27
2022-10-10T18:04:16.859Z,21.09
2022-10-10T18:09:19.234Z,21.12
2022-10-10T18:14:22.155Z,21.25
2022-10-10T18:19:24.595Z,21.06
2022-10-10T18:24:26.858Z,21.13
2022-10-10T18:29:29.090Z,21.02
2022-10-10T18:34:31.331Z,20.86
2022-10-10T18:39:36.401Z,20.94
2022-10-10T18:44:38.667Z,20.92
2022-10-10T18:49:41.267Z,20.91
2022-10-10T18:54:43.699Z,20.65
2022-10-10T18:59:46.185Z,20.77
2022-10-10T19:04:48.860Z,20.75
2022-10-10T19:09:51.414Z,20.66
2022-10-10T19:14:53.931Z,20.32
2022-10-10T19:19:56.246Z,20.49
2022-10-10T19:24:58.908Z,20.39
2022-10-10T19:30:01.062Z,20.51
2022-10-10T19:35:03.684Z,20.50
2022-10-10T19:40:06.561Z,20.39
2022-10-10T19:45:09.342Z,20.33
2022-10-10T19:50:11.980Z,20.22
2022-10-10T19:55:14.373Z,20.37
2022-10-10T20:00:16.924Z,20.17
2022-10-10T20:05:19.192Z,20.14
2022-10-10T20:10:22.021Z,20.25
2022-10-10T20:15:24.353Z,20.42
2022-10-10T20:20:26.625Z,20.25
2022-10-10T20:25:28.815Z,20.36
2022-10-10T20:30:31.357Z,20.33
2022-10-10T20:35:34.719Z,20.27
2022-10-10T20:40:41.408Z,20.01
2022-10-10T20:45:43.848Z,20.05
2022-10-10T20:50:46.049Z,20.11
2022-10-10T20:55:48.283Z,20.10
2022-10-10T21:00:51.472Z,19.84
2022-10-10T21:06:02.714Z,19.84
2022-10-10T21:11:07.748Z,19.87
2022-10-10T21:16:13.786Z,19.76
2022-10-10T21:21:16.383Z,19.46
2022-10-10T21:26:21.260Z,19.51
2022-10-10T21:31:36.647Z,19.09
2022-10-10T21:36:38.974Z,19.32
2022-10-10T21:41:41.979Z,19.32
2022-10-10T21:46:44.428Z,19.18
2022-10-10T21:51:46.993Z,19.19
2022-10-10T21:56:49.604Z,19.06
2022-10-10T22:01:51.975Z,18.91
2022-10-10T22:06:54.487Z,19.08
2022-10-10T22:11:56.811Z,18.91
2022-10-10T22:16:59.311Z,18.96
2022-10-10T22:22:01.873Z,19.05
2022-10-10T22:27:04.276Z,18.89
2022-10-10T22:32:06.668Z,18.79
2022-10-10T22:37:09.174Z,18.92
2022-10-10T22:42:11.615Z,18.67
2022-10-10T22:47:13.931Z,18.76
2022-10-10T22:52:16.458Z,18.58
2022-10-10T22:57:18.637Z,18.67
2022-10-10T23:02:20.967Z,18.77
2022-10-10T23:07:23.226Z,18.57
2022-10-10T23:12:25.639Z,18.58
2022-10-10T23:17:27.865Z,18.59
2022-10-10T23:22:30.250Z,18.66
2022-10-10T23:27:32.778Z,18.55
2022-10-10T23:32:35.409Z,18.64
2022-10-10T23:37:37.875Z,18.52
2022-10-10T23:42:40.081Z,18.37
2022-10-10T23:47:42.278Z,18.51
2022-10-10T23:52:44.708Z,18.43
2022-10-10T23:57:47.236Z,18.47
